createdAt,value
2023-03-31T00:00:16.379Z,2.10
2023-03-31T00:05:18.363Z,2.33
2023-03-31T00:10:20.281Z,2.17
2023-03-31T00:15:22.360Z,2.63
2023-03-31T00:20:24.144Z,2.30
2023-03-31T00:25:25.942Z,2.45
2023-03-31T00:30:27.808Z,2.30
2023-03-31T00:35:29.622Z,2.55
2023-03-31T00:40:32.264Z,2.47
2023-03-31T00:45:34.272Z,2.58
2023-03-31T00:50:44.300Z,2.80
2023-03-31T00:55:51.731Z,2.38
2023-03-31T01:00:53.996Z,2.60
2023-03-31T01:06:00.130Z,2.15
2023-03-31T01:11:04.696Z,2.50
2023-03-31T01:16:06.841Z,2.63
2023-03-31T01:21:30.561Z,2.10
2023-03-31T01:27:00.554Z,2.78
2023-03-31T01:32:19.870Z,2.47
2023-03-31T01:37:52.473Z,2.72
2023-03-31T01:43:16.124Z,2.60
2023-03-31T01:48:42.017Z,3.05
2023-03-31T01:54:18.237Z,2.30
2023-03-31T01:59:45.163Z,2.30
2023-03-31T02:04:52.244Z,2.35
2023-03-31T02:09:59.973Z,2.38
2023-03-31T02:15:06.219Z,2.67
2023-03-31T02:20:12.673Z,3.10
2023-03-31T02:25:19.277Z,2.25
2023-03-31T02:30:21.195Z,2.47
2023-03-31T02:35:23.173Z,2.17
2023-03-31T02:40:27.737Z,2.50
2023-03-31T02:45:39.110Z,2.40
2023-03-31T02:51:02.304Z,2.72
2023-03-31T02:56:41.846Z,2.50
2023-03-31T03:02:02.889Z,2.40
2023-03-31T03:07:09.220Z,2.35
2023-03-31T03:12:35.631Z,2.20
2023-03-31T03:17:43.884Z,2.17
2023-03-31T03:22:45.540Z,2.22
2023-03-31T03:27:47.630Z,2.75
2023-03-31T03:32:50.541Z,2.47
2023-03-31T03:37:52.243Z,2.60
2023-03-31T03:42:53.865Z,2.30
2023-03-31T03:47:55.506Z,2.67
2023-03-31T03:52:57.160Z,2.72
2023-03-31T03:57:58.748Z,2.70
2023-03-31T04:03:00.596Z,2.60
2023-03-31T04:08:02.991Z,2.45
2023-03-31T04:13:04.624Z,2.45
2023-03-31T04:18:06.310Z,2.40
2023-03-31T04:23:09.769Z,2.67
2023-03-31T04:28:14.562Z,2.10
2023-03-31T04:33:17.370Z,2.80
2023-03-31T04:38:21.369Z,2.10
2023-03-31T04:43:22.997Z,2.10
2023-03-31T04:48:24.682Z,2.15
2023-03-31T04:53:26.423Z,2.42
2023-03-31T04:58:28.359Z,2.72
2023-03-31T05:03:30.029Z,2.00
2023-03-31T05:08:31.767Z,2.83
2023-03-31T05:13:33.560Z,2.25
2023-03-31T05:18:35.441Z,2.60
2023-03-31T05:23:37.246Z,2.60
2023-03-31T05:28:39.721Z,2.15
2023-03-31T05:33:42.212Z,2.25
2023-03-31T05:38:44.466Z,2.45
2023-03-31T05:43:46.339Z,2.42
2023-03-31T05:48:48.149Z,2.42
2023-03-31T05:53:49.767Z,2.40
2023-03-31T05:58:51.479Z,2.70
2023-03-31T06:03:53.372Z,3.20
2023-03-31T06:08:55.063Z,2.90
2023-03-31T06:13:56.748Z,2.88
2023-03-31T06:18:58.373Z,2.90
2023-03-31T06:24:00.723Z,3.38
2023-03-31T06:29:02.602Z,3.00
2023-03-31T06:34:04.241Z,3.05
2023-03-31T06:39:05.927Z,3.47
2023-03-31T06:44:07.536Z,3.10
2023-03-31T06:49:09.160Z,3.22
2023-03-31T06:54:10.813Z,3.70
2023-03-31T06:59:12.477Z,3.78
2023-03-31T07:04:14.320Z,3.63
2023-03-31T07:09:16.217Z,3.60
2023-03-31T07:14:18.082Z,4.00
2023-03-31T07:19:20.096Z,3.83
2023-03-31T07:24:22.437Z,3.72
2023-03-31T07:29:24.430Z,4.68
2023-03-31T07:34:26.321Z,3.85
2023-03-31T07:39:28.166Z,4.10
2023-03-31T07:44:29.986Z,3.75
2023-03-31T07:49:33.980Z,3.92
2023-03-31T07:54:36.030Z,3.97
2023-03-31T07:59:37.969Z,3.40
2023-03-31T08:04:42.242Z,3.00
2023-03-31T08:09:46.222Z,2.83
2023-03-31T08:14:48.974Z,4.00
2023-03-31T08:19:52.217Z,3.33
2023-03-31T08:24:54.082Z,3.53
2023-03-31T08:29:55.886Z,2.95
2023-03-31T08:34:57.719Z,3.17
2023-03-31T08:40:00.405Z,2.92
2023-03-31T08:45:06.608Z,3.05
2023-03-31T08:50:16.011Z,3.00
2023-03-31T08:55:28.047Z,3.28
2023-03-31T09:00:51.244Z,2.88
2023-03-31T09:06:03.183Z,3.45
2023-03-31T09:11:08.127Z,3.35
2023-03-31T09:16:14.920Z,2.83
2023-03-31T09:21:36.128Z,2.70
2023-03-31T09:26:41.157Z,2.97
2023-03-31T09:31:44.093Z,2.95
2023-03-31T09:36:46.011Z,2.67
2023-03-31T09:41:50.866Z,2.53
2023-03-31T09:46:54.104Z,2.33
2023-03-31T09:52:15.487Z,2.10
2023-03-31T09:57:27.294Z,2.60
2023-03-31T10:02:37.883Z,2.70
2023-03-31T10:07:39.827Z,2.88
2023-03-31T10:12:41.722Z,2.67
2023-03-31T10:17:54.824Z,2.67
2023-03-31T10:23:03.639Z,3.30
2023-03-31T10:28:05.571Z,3.20
2023-03-31T10:33:22.187Z,2.80
2023-03-31T10:38:29.379Z,2.60
2023-03-31T10:43:40.116Z,2.60
2023-03-31T10:48:44.482Z,2.65
2023-03-31T10:53:51.641Z,2.60
2023-03-31T10:59:14.818Z,2.60
2023-03-31T11:04:46.278Z,2.58
2023-03-31T11:10:13.810Z,2.40
2023-03-31T11:15:25.721Z,2.47
2023-03-31T11:41:02.416Z,2.45
2023-03-31T11:53:12.635Z,2.85
2023-03-31T12:10:58.320Z,2.53
2023-03-31T12:16:33.845Z,3.20
2023-03-31T12:22:22.832Z,2.35
2023-03-31T12:27:49.257Z,2.50
2023-03-31T12:33:10.630Z,2.70
2023-03-31T12:38:30.057Z,2.72
2023-03-31T12:44:22.334Z,2.78
2023-03-31T12:50:18.387Z,3.25
2023-03-31T12:56:10.239Z,3.08
2023-03-31T13:01:22.117Z,3.38
2023-03-31T13:06:30.462Z,3.30
2023-03-31T13:11:38.118Z,2.95
2023-03-31T13:16:40.661Z,3.55
2023-03-31T13:22:00.095Z,3.40
2023-03-31T13:27:48.675Z,4.10
2023-03-31T13:33:11.234Z,4.90
2023-03-31T13:38:13.086Z,5.40
2023-03-31T13:43:33.276Z,6.00
2023-03-31T13:48:54.365Z,7.70
2023-03-31T13:54:33.766Z,8.13
2023-03-31T13:59:42.406Z,9.45
2023-03-31T14:05:17.765Z,9.55
2023-03-31T14:10:24.049Z,9.98
2023-03-31T14:15:26.193Z,10.70
2023-03-31T14:20:42.580Z,12.63
2023-03-31T14:25:57.389Z,10.88
2023-03-31T14:31:21.542Z,9.57
2023-03-31T14:36:38.191Z,8.32
2023-03-31T14:41:41.677Z,8.30
2023-03-31T14:46:43.519Z,8.60
2023-03-31T14:51:45.829Z,9.07
2023-03-31T14:56:53.112Z,10.52
2023-03-31T15:01:58.424Z,10.23
2023-03-31T15:07:01.648Z,9.75
2023-03-31T15:12:07.541Z,8.50
2023-03-31T15:17:38.379Z,8.13
2023-03-31T15:22:41.039Z,6.47
2023-03-31T15:27:53.714Z,5.95
2023-03-31T15:33:04.316Z,5.90
2023-03-31T15:38:18.761Z,7.20
2023-03-31T15:43:43.304Z,8.40
2023-03-31T15:48:53.213Z,8.30
2023-03-31T15:53:55.426Z,8.60
2023-03-31T15:59:00.801Z,8.32
2023-03-31T16:04:07.880Z,8.57
2023-03-31T16:09:16.221Z,8.32
2023-03-31T16:14:24.868Z,7.55
2023-03-31T16:19:29.570Z,8.00
2023-03-31T16:24:34.715Z,8.23
2023-03-31T16:29:38.223Z,8.55
2023-03-31T16:35:00.103Z,8.10
2023-03-31T16:40:02.344Z,8.35
2023-03-31T16:45:13.743Z,8.10
2023-03-31T16:50:16.684Z,7.30
2023-03-31T16:55:18.503Z,7.60
2023-03-31T17:00:20.706Z,7.00
2023-03-31T17:05:22.505Z,7.15
2023-03-31T17:10:24.606Z,7.53
2023-03-31T17:15:29.731Z,5.40
2023-03-31T17:20:31.844Z,5.43
2023-03-31T17:25:35.110Z,4.50
2023-03-31T17:30:38.693Z,3.90
2023-03-31T17:35:40.790Z,3.78
2023-03-31T17:40:43.218Z,4.63
2023-03-31T17:45:45.179Z,4.25
2023-03-31T17:50:47.398Z,4.05
2023-03-31T17:55:49.240Z,3.95
2023-03-31T18:00:52.242Z,3.50
2023-03-31T18:05:54.243Z,3.85
2023-03-31T18:10:56.653Z,3.20
2023-03-31T18:15:58.894Z,3.72
2023-03-31T18:21:06.231Z,3.65
2023-03-31T18:26:10.068Z,3.60
2023-03-31T18:31:12.540Z,3.53
2023-03-31T18:36:19.537Z,3.35
2023-03-31T18:41:21.770Z,3.72
2023-03-31T18:46:23.855Z,3.33
2023-03-31T18:51:25.761Z,3.00
2023-03-31T18:56:27.958Z,5.78
2023-03-31T19:01:48.961Z,2.50
2023-03-31T19:06:52.261Z,6.75
2023-03-31T19:11:54.106Z,2.53
2023-03-31T19:16:56.297Z,2.40
2023-03-31T19:21:58.602Z,2.83
2023-03-31T19:27:00.468Z,2.55
2023-03-31T19:32:02.837Z,2.30
2023-03-31T19:37:05.171Z,2.05
2023-03-31T19:42:07.040Z,2.47
2023-03-31T19:47:08.835Z,2.20
2023-03-31T19:52:10.649Z,2.00
2023-03-31T19:57:12.913Z,2.03
2023-03-31T20:02:14.876Z,2.25
2023-03-31T20:07:16.849Z,2.65
2023-03-31T20:12:18.937Z,2.00
2023-03-31T20:17:21.237Z,2.10
2023-03-31T20:22:23.128Z,2.00
2023-03-31T20:27:26.457Z,2.38
2023-03-31T20:32:28.626Z,2.20
2023-03-31T20:37:30.456Z,2.20
2023-03-31T20:42:32.292Z,1.85
2023-03-31T20:47:35.355Z,1.95
2023-03-31T20:52:37.193Z,1.83
2023-03-31T20:57:39.020Z,1.80
2023-03-31T21:02:41.953Z,1.60
2023-03-31T21:07:44.019Z,1.65
2023-03-31T21:12:46.464Z,1.90
2023-03-31T21:17:48.376Z,1.80
2023-03-31T21:22:50.416Z,1.27
2023-03-31T21:27:52.610Z,1.50
2023-03-31T21:32:54.559Z,1.70
2023-03-31T21:37:56.453Z,1.73
2023-03-31T21:42:58.236Z,1.58
2023-03-31T21:48:00.042Z,1.67
2023-03-31T21:53:04.899Z,1.63
2023-03-31T21:58:06.767Z,1.40
2023-03-31T22:03:25.618Z,1.40
2023-03-31T22:08:29.613Z,1.65
2023-03-31T22:13:31.998Z,1.40
2023-03-31T22:18:33.890Z,1.70
2023-03-31T22:23:35.740Z,1.30
2023-03-31T22:28:37.592Z,1.58
2023-03-31T22:33:39.415Z,1.88
2023-03-31T22:38:41.982Z,1.50
2023-03-31T22:43:45.807Z,1.63
2023-03-31T22:48:49.623Z,1.85
2023-03-31T22:53:53.346Z,1.58
2023-03-31T22:58:57.736Z,1.75
2023-03-31T23:04:00.884Z,1.77
2023-03-31T23:09:02.890Z,2.05
2023-03-31T23:14:04.789Z,1.48
2023-03-31T23:19:07.009Z,1.67
2023-03-31T23:24:11.239Z,1.80
2023-03-31T23:29:13.522Z,1.63
2023-03-31T23:34:15.532Z,1.35
2023-03-31T23:39:17.348Z,1.50
2023-03-31T23:44:19.455Z,1.73
2023-03-31T23:49:21.408Z,1.58
2023-03-31T23:54:23.330Z,1.92
2023-03-31T23:59:25.271Z,2.00
